Terminal Aerodrome Forecast
Issued by NWS Atlanta, GA

Home | Current Version | Previous Version | Text Only | Print | Product List | Glossary On
Versions: 1 2 3 4 5 6 7 8 9 10 11 12 13 14 15 16 17 18 19
000
FTUS42 KFFC 232300
TAFCSG
TAF
KCSG 232329Z 2400/2424 08008KT P6SM FEW045
     FM241400 06010G16KT P6SM BKN035
     FM241800 06010G18KT P6SM SCT040=

USA.gov is the U.S. government's official web portal to all federal, state and local government web resources and services.